sensor_id;sensor_type;location;lat;lon;timestamp;temperature;humidity
3275;DHT22;1649;53.672;10.064;2024-02-23T00:01:04;9.50;99.90
3275;DHT22;1649;53.672;10.064;2024-02-23T00:03:29;9.40;99.90
3275;DHT22;1649;53.672;10.064;2024-02-23T00:05:55;9.40;99.90
3275;DHT22;1649;53.672;10.064;2024-02-23T00:08:21;9.30;99.90
3275;DHT22;1649;53.672;10.064;2024-02-23T00:10:46;9.20;99.90
3275;DHT22;1649;53.672;10.064;2024-02-23T00:13:12;9.10;99.90
3275;DHT22;1649;53.672;10.064;2024-02-23T00:15:38;9.10;99.90
3275;DHT22;1649;53.672;10.064;2024-02-23T00:18:04;9.00;99.90
3275;DHT22;1649;53.672;10.064;2024-02-23T00:20:30;8.90;99.90
3275;DHT22;1649;53.672;10.064;2024-02-23T00:22:55;8.90;99.90
3275;DHT22;1649;53.672;10.064;2024-02-23T00:25:21;8.80;99.90
3275;DHT22;1649;53.672;10.064;2024-02-23T00:27:46;8.90;99.90
3275;DHT22;1649;53.672;10.064;2024-02-23T00:30:13;8.90;99.90
3275;DHT22;1649;53.672;10.064;2024-02-23T00:32:38;8.90;99.90
3275;DHT22;1649;53.672;10.064;2024-02-23T00:35:04;8.80;99.90
3275;DHT22;1649;53.672;10.064;2024-02-23T00:37:30;8.90;99.90
3275;DHT22;1649;53.672;10.064;2024-02-23T00:40:04;8.90;99.90
3275;DHT22;1649;53.672;10.064;2024-02-23T00:42:30;8.90;99.90
3275;DHT22;1649;53.672;10.064;2024-02-23T00:44:56;8.90;99.90
3275;DHT22;1649;53.672;10.064;2024-02-23T00:47:21;8.90;99.90
3275;DHT22;1649;53.672;10.064;2024-02-23T00:49:47;8.90;99.90
3275;DHT22;1649;53.672;10.064;2024-02-23T00:52:12;8.80;99.90
3275;DHT22;1649;53.672;10.064;2024-02-23T00:54:37;8.50;99.90
3275;DHT22;1649;53.672;10.064;2024-02-23T00:57:03;8.10;99.90
3275;DHT22;1649;53.672;10.064;2024-02-23T00:59:28;7.70;99.90
3275;DHT22;1649;53.672;10.064;2024-02-23T01:01:55;7.40;99.90
3275;DHT22;1649;53.672;10.064;2024-02-23T01:04:21;7.30;99.90
3275;DHT22;1649;53.672;10.064;2024-02-23T01:06:46;7.10;99.90
3275;DHT22;1649;53.672;10.064;2024-02-23T01:09:12;7.10;99.90
3275;DHT22;1649;53.672;10.064;2024-02-23T01:11:37;7.00;99.90
3275;DHT22;1649;53.672;10.064;2024-02-23T01:14:03;7.00;99.90
3275;DHT22;1649;53.672;10.064;2024-02-23T01:16:28;7.00;99.90
3275;DHT22;1649;53.672;10.064;2024-02-23T01:18:54;7.00;99.90
3275;DHT22;1649;53.672;10.064;2024-02-23T01:21:19;7.00;99.90
3275;DHT22;1649;53.672;10.064;2024-02-23T01:23:45;6.90;99.90
3275;DHT22;1649;53.672;10.064;2024-02-23T01:26:11;6.90;99.90
3275;DHT22;1649;53.672;10.064;2024-02-23T01:28:36;6.90;99.90
3275;DHT22;1649;53.672;10.064;2024-02-23T01:31:02;6.80;99.90
3275;DHT22;1649;53.672;10.064;2024-02-23T01:33:29;6.80;99.90
3275;DHT22;1649;53.672;10.064;2024-02-23T01:35:54;6.80;99.90
3275;DHT22;1649;53.672;10.064;2024-02-23T01:38:21;6.70;99.90
3275;DHT22;1649;53.672;10.064;2024-02-23T01:40:47;6.70;99.90
3275;DHT22;1649;53.672;10.064;2024-02-23T01:43:13;6.70;99.90
3275;DHT22;1649;53.672;10.064;2024-02-23T01:45:38;6.70;99.90
3275;DHT22;1649;53.672;10.064;2024-02-23T01:48:04;6.70;99.90
3275;DHT22;1649;53.672;10.064;2024-02-23T01:50:30;6.80;99.90
3275;DHT22;1649;53.672;10.064;2024-02-23T01:53:00;6.80;99.90
3275;DHT22;1649;53.672;10.064;2024-02-23T01:55:26;6.80;99.90
3275;DHT22;1649;53.672;10.064;2024-02-23T01:57:53;6.80;99.90
3275;DHT22;1649;53.672;10.064;2024-02-23T02:00:19;6.80;99.90
3275;DHT22;1649;53.672;10.064;2024-02-23T02:02:47;6.80;99.90
3275;DHT22;1649;53.672;10.064;2024-02-23T02:05:13;6.80;99.90
3275;DHT22;1649;53.672;10.064;2024-02-23T02:07:40;6.80;99.90
3275;DHT22;1649;53.672;10.064;2024-02-23T02:10:08;6.80;99.90
3275;DHT22;1649;53.672;10.064;2024-02-23T02:12:34;6.70;99.90
3275;DHT22;1649;53.672;10.064;2024-02-23T02:15:00;6.70;99.90
3275;DHT22;1649;53.672;10.064;2024-02-23T02:17:27;6.70;99.90
3275;DHT22;1649;53.672;10.064;2024-02-23T02:19:53;6.60;99.90
3275;DHT22;1649;53.672;10.064;2024-02-23T02:22:19;6.60;99.90
3275;DHT22;1649;53.672;10.064;2024-02-23T02:24:44;6.70;99.90
3275;DHT22;1649;53.672;10.064;2024-02-23T02:27:12;6.60;99.90
3275;DHT22;1649;53.672;10.064;2024-02-23T02:29:37;6.60;99.90
3275;DHT22;1649;53.672;10.064;2024-02-23T02:32:03;6.60;99.90
3275;DHT22;1649;53.672;10.064;2024-02-23T02:34:29;6.50;99.90
3275;DHT22;1649;53.672;10.064;2024-02-23T02:36:55;6.50;99.90
3275;DHT22;1649;53.672;10.064;2024-02-23T02:39:20;6.40;99.90
3275;DHT22;1649;53.672;10.064;2024-02-23T02:41:48;6.40;99.90
3275;DHT22;1649;53.672;10.064;2024-02-23T02:44:14;6.30;99.90
3275;DHT22;1649;53.672;10.064;2024-02-23T02:46:40;6.20;99.90
3275;DHT22;1649;53.672;10.064;2024-02-23T02:49:06;6.20;99.90
3275;DHT22;1649;53.672;10.064;2024-02-23T02:51:31;6.10;99.90
3275;DHT22;1649;53.672;10.064;2024-02-23T02:53:57;6.10;99.90
3275;DHT22;1649;53.672;10.064;2024-02-23T02:56:22;6.00;99.90
3275;DHT22;1649;53.672;10.064;2024-02-23T02:58:48;5.90;99.90
3275;DHT22;1649;53.672;10.064;2024-02-23T03:01:14;5.80;99.90
3275;DHT22;1649;53.672;10.064;2024-02-23T03:03:39;5.80;99.90
3275;DHT22;1649;53.672;10.064;2024-02-23T03:06:05;5.70;99.90
3275;DHT22;1649;53.672;10.064;2024-02-23T03:08:31;5.70;99.90
3275;DHT22;1649;53.672;10.064;2024-02-23T03:10:57;5.70;99.90
3275;DHT22;1649;53.672;10.064;2024-02-23T03:13:22;5.70;99.90
3275;DHT22;1649;53.672;10.064;2024-02-23T03:15:48;5.70;99.90
3275;DHT22;1649;53.672;10.064;2024-02-23T03:18:13;5.70;99.90
3275;DHT22;1649;53.672;10.064;2024-02-23T03:20:41;5.70;99.90
3275;DHT22;1649;53.672;10.064;2024-02-23T03:23:07;5.70;99.90
3275;DHT22;1649;53.672;10.064;2024-02-23T03:25:32;5.70;99.90
3275;DHT22;1649;53.672;10.064;2024-02-23T03:27:58;5.70;99.90
3275;DHT22;1649;53.672;10.064;2024-02-23T03:30:23;5.70;99.90
3275;DHT22;1649;53.672;10.064;2024-02-23T03:32:49;5.70;99.90
3275;DHT22;1649;53.672;10.064;2024-02-23T03:35:14;5.70;99.90
3275;DHT22;1649;53.672;10.064;2024-02-23T03:37:40;5.70;99.90
3275;DHT22;1649;53.672;10.064;2024-02-23T03:40:06;5.70;99.90
3275;DHT22;1649;53.672;10.064;2024-02-23T03:42:31;5.70;99.90
3275;DHT22;1649;53.672;10.064;2024-02-23T03:44:57;5.70;99.90
3275;DHT22;1649;53.672;10.064;2024-02-23T03:47:22;5.70;99.90
3275;DHT22;1649;53.672;10.064;2024-02-23T03:49:48;5.70;99.90
3275;DHT22;1649;53.672;10.064;2024-02-23T03:52:13;5.60;99.90
3275;DHT22;1649;53.672;10.064;2024-02-23T03:54:39;5.60;99.90
3275;DHT22;1649;53.672;10.064;2024-02-23T03:57:05;5.50;99.90
3275;DHT22;1649;53.672;10.064;2024-02-23T03:59:30;5.40;99.90
3275;DHT22;1649;53.672;10.064;2024-02-23T04:01:56;5.40;99.90
3275;DHT22;1649;53.672;10.064;2024-02-23T04:04:22;5.30;99.90
3275;DHT22;1649;53.672;10.064;2024-02-23T04:06:47;5.30;99.90
3275;DHT22;1649;53.672;10.064;2024-02-23T04:09:13;5.20;99.90
3275;DHT22;1649;53.672;10.064;2024-02-23T04:11:38;5.20;99.90
3275;DHT22;1649;53.672;10.064;2024-02-23T04:14:04;5.10;99.90
3275;DHT22;1649;53.672;10.064;2024-02-23T04:16:32;5.10;99.90
3275;DHT22;1649;53.672;10.064;2024-02-23T04:18:58;5.00;99.90
3275;DHT22;1649;53.672;10.064;2024-02-23T04:21:24;5.00;99.90
3275;DHT22;1649;53.672;10.064;2024-02-23T04:23:50;5.00;99.90
3275;DHT22;1649;53.672;10.064;2024-02-23T04:26:15;5.00;99.90
3275;DHT22;1649;53.672;10.064;2024-02-23T04:28:41;5.00;99.90
3275;DHT22;1649;53.672;10.064;2024-02-23T04:31:10;5.10;99.90
3275;DHT22;1649;53.672;10.064;2024-02-23T04:33:37;5.20;99.90
3275;DHT22;1649;53.672;10.064;2024-02-23T04:36:03;5.20;99.90
3275;DHT22;1649;53.672;10.064;2024-02-23T04:38:30;5.20;99.90
3275;DHT22;1649;53.672;10.064;2024-02-23T04:40:55;5.30;99.90
3275;DHT22;1649;53.672;10.064;2024-02-23T04:43:22;5.30;99.90
3275;DHT22;1649;53.672;10.064;2024-02-23T04:45:48;5.30;99.90
3275;DHT22;1649;53.672;10.064;2024-02-23T04:48:13;5.30;99.90
3275;DHT22;1649;53.672;10.064;2024-02-23T04:50:39;5.30;99.90
3275;DHT22;1649;53.672;10.064;2024-02-23T04:53:04;5.30;99.90
3275;DHT22;1649;53.672;10.064;2024-02-23T04:55:30;5.30;99.90
3275;DHT22;1649;53.672;10.064;2024-02-23T04:57:55;5.20;99.90
3275;DHT22;1649;53.672;10.064;2024-02-23T05:00:21;5.20;99.90
3275;DHT22;1649;53.672;10.064;2024-02-23T05:02:47;5.20;99.90
3275;DHT22;1649;53.672;10.064;2024-02-23T05:05:12;5.20;99.90
3275;DHT22;1649;53.672;10.064;2024-02-23T05:07:38;5.20;99.90
3275;DHT22;1649;53.672;10.064;2024-02-23T05:10:04;5.30;99.90
3275;DHT22;1649;53.672;10.064;2024-02-23T05:12:29;5.30;99.90
3275;DHT22;1649;53.672;10.064;2024-02-23T05:14:55;5.30;99.90
3275;DHT22;1649;53.672;10.064;2024-02-23T05:17:20;5.30;99.90
3275;DHT22;1649;53.672;10.064;2024-02-23T05:19:46;5.40;99.90
3275;DHT22;1649;53.672;10.064;2024-02-23T05:22:12;5.30;99.90
3275;DHT22;1649;53.672;10.064;2024-02-23T05:24:37;5.30;99.90
3275;DHT22;1649;53.672;10.064;2024-02-23T05:27:03;5.30;99.90
3275;DHT22;1649;53.672;10.064;2024-02-23T05:29:29;5.30;99.90
3275;DHT22;1649;53.672;10.064;2024-02-23T05:31:54;5.30;99.90
3275;DHT22;1649;53.672;10.064;2024-02-23T05:34:20;5.30;99.90
3275;DHT22;1649;53.672;10.064;2024-02-23T05:36:46;5.30;99.90
3275;DHT22;1649;53.672;10.064;2024-02-23T05:39:13;5.30;99.90
3275;DHT22;1649;53.672;10.064;2024-02-23T05:41:40;5.20;99.90
3275;DHT22;1649;53.672;10.064;2024-02-23T05:44:06;5.10;99.90
3275;DHT22;1649;53.672;10.064;2024-02-23T05:46:32;5.10;99.90
3275;DHT22;1649;53.672;10.064;2024-02-23T05:48:58;5.00;99.90
3275;DHT22;1649;53.672;10.064;2024-02-23T05:51:24;5.10;99.90
3275;DHT22;1649;53.672;10.064;2024-02-23T05:53:49;5.10;99.90
3275;DHT22;1649;53.672;10.064;2024-02-23T05:56:15;5.10;99.90
3275;DHT22;1649;53.672;10.064;2024-02-23T05:58:41;5.20;99.90
3275;DHT22;1649;53.672;10.064;2024-02-23T06:01:06;5.20;99.90
3275;DHT22;1649;53.672;10.064;2024-02-23T06:03:32;5.10;99.90
3275;DHT22;1649;53.672;10.064;2024-02-23T06:05:58;5.20;99.90
3275;DHT22;1649;53.672;10.064;2024-02-23T06:08:24;5.20;99.90
3275;DHT22;1649;53.672;10.064;2024-02-23T06:10:49;5.30;99.90
3275;DHT22;1649;53.672;10.064;2024-02-23T06:13:15;5.30;99.90
3275;DHT22;1649;53.672;10.064;2024-02-23T06:15:40;5.30;99.90
3275;DHT22;1649;53.672;10.064;2024-02-23T06:18:06;5.30;99.90
3275;DHT22;1649;53.672;10.064;2024-02-23T06:20:32;5.30;99.90
3275;DHT22;1649;53.672;10.064;2024-02-23T06:22:57;5.30;99.90
3275;DHT22;1649;53.672;10.064;2024-02-23T06:25:23;5.30;99.90
3275;DHT22;1649;53.672;10.064;2024-02-23T06:27:48;5.30;99.90
3275;DHT22;1649;53.672;10.064;2024-02-23T06:30:14;5.30;99.90
3275;DHT22;1649;53.672;10.064;2024-02-23T06:32:39;5.30;99.90
3275;DHT22;1649;53.672;10.064;2024-02-23T06:35:05;5.30;99.90
3275;DHT22;1649;53.672;10.064;2024-02-23T06:37:32;5.30;99.90
3275;DHT22;1649;53.672;10.064;2024-02-23T06:39:58;5.30;99.90
3275;DHT22;1649;53.672;10.064;2024-02-23T06:42:25;5.30;99.90
3275;DHT22;1649;53.672;10.064;2024-02-23T06:44:50;5.30;99.90
3275;DHT22;1649;53.672;10.064;2024-02-23T06:47:16;5.30;99.90
3275;DHT22;1649;53.672;10.064;2024-02-23T06:49:42;5.30;99.90
3275;DHT22;1649;53.672;10.064;2024-02-23T06:52:08;5.30;99.90
3275;DHT22;1649;53.672;10.064;2024-02-23T06:54:34;5.30;99.90
3275;DHT22;1649;53.672;10.064;2024-02-23T06:57:00;5.30;99.90
3275;DHT22;1649;53.672;10.064;2024-02-23T06:59:25;5.30;99.90
3275;DHT22;1649;53.672;10.064;2024-02-23T07:01:51;5.30;99.90
3275;DHT22;1649;53.672;10.064;2024-02-23T07:04:17;5.30;99.90
3275;DHT22;1649;53.672;10.064;2024-02-23T07:06:43;5.30;99.90
3275;DHT22;1649;53.672;10.064;2024-02-23T07:09:09;5.30;99.90
3275;DHT22;1649;53.672;10.064;2024-02-23T07:11:37;5.40;99.90
3275;DHT22;1649;53.672;10.064;2024-02-23T07:14:02;5.40;99.90
3275;DHT22;1649;53.672;10.064;2024-02-23T07:16:27;5.40;99.90
3275;DHT22;1649;53.672;10.064;2024-02-23T07:18:53;5.40;99.90
3275;DHT22;1649;53.672;10.064;2024-02-23T07:21:19;5.40;99.90
3275;DHT22;1649;53.672;10.064;2024-02-23T07:23:45;5.50;99.90
3275;DHT22;1649;53.672;10.064;2024-02-23T07:26:10;5.50;99.90
3275;DHT22;1649;53.672;10.064;2024-02-23T07:28:36;5.50;99.90
3275;DHT22;1649;53.672;10.064;2024-02-23T07:31:01;5.50;99.90
3275;DHT22;1649;53.672;10.064;2024-02-23T07:33:27;5.60;99.90
3275;DHT22;1649;53.672;10.064;2024-02-23T07:35:52;5.60;99.90
3275;DHT22;1649;53.672;10.064;2024-02-23T07:38:18;5.70;99.90
3275;DHT22;1649;53.672;10.064;2024-02-23T07:40:44;5.60;99.90
3275;DHT22;1649;53.672;10.064;2024-02-23T07:43:10;5.60;99.90
3275;DHT22;1649;53.672;10.064;2024-02-23T07:45:38;5.60;99.90
3275;DHT22;1649;53.672;10.064;2024-02-23T07:48:04;5.60;99.90
3275;DHT22;1649;53.672;10.064;2024-02-23T07:50:30;5.60;99.90
3275;DHT22;1649;53.672;10.064;2024-02-23T07:52:55;5.60;99.90
3275;DHT22;1649;53.672;10.064;2024-02-23T07:55:21;5.50;99.90
3275;DHT22;1649;53.672;10.064;2024-02-23T07:57:47;5.60;99.90
3275;DHT22;1649;53.672;10.064;2024-02-23T08:00:13;5.70;99.90
3275;DHT22;1649;53.672;10.064;2024-02-23T08:02:39;5.70;99.90
3275;DHT22;1649;53.672;10.064;2024-02-23T08:05:06;5.70;99.90
3275;DHT22;1649;53.672;10.064;2024-02-23T08:07:32;5.70;99.90
3275;DHT22;1649;53.672;10.064;2024-02-23T08:09:57;5.80;99.90
3275;DHT22;1649;53.672;10.064;2024-02-23T08:12:23;5.90;99.90
3275;DHT22;1649;53.672;10.064;2024-02-23T08:21:36;6.50;99.90
3275;DHT22;1649;53.672;10.064;2024-02-23T08:24:01;6.80;99.90
3275;DHT22;1649;53.672;10.064;2024-02-23T08:26:28;6.80;99.90
3275;DHT22;1649;53.672;10.064;2024-02-23T08:28:53;6.90;99.90
3275;DHT22;1649;53.672;10.064;2024-02-23T08:31:18;7.10;99.90
3275;DHT22;1649;53.672;10.064;2024-02-23T08:33:44;7.50;99.90
3275;DHT22;1649;53.672;10.064;2024-02-23T08:36:10;7.90;99.90
3275;DHT22;1649;53.672;10.064;2024-02-23T08:38:35;8.20;99.90
3275;DHT22;1649;53.672;10.064;2024-02-23T08:41:02;8.60;99.90
3275;DHT22;1649;53.672;10.064;2024-02-23T08:43:28;9.10;99.90
3275;DHT22;1649;53.672;10.064;2024-02-23T08:45:53;9.40;99.90
3275;DHT22;1649;53.672;10.064;2024-02-23T08:48:19;9.30;99.90
3275;DHT22;1649;53.672;10.064;2024-02-23T08:50:44;8.80;99.90
3275;DHT22;1649;53.672;10.064;2024-02-23T08:53:10;8.40;99.90
3275;DHT22;1649;53.672;10.064;2024-02-23T08:55:35;8.00;99.90
3275;DHT22;1649;53.672;10.064;2024-02-23T08:58:01;7.80;99.90
3275;DHT22;1649;53.672;10.064;2024-02-23T09:00:26;7.70;99.90
3275;DHT22;1649;53.672;10.064;2024-02-23T09:02:52;7.70;99.90
3275;DHT22;1649;53.672;10.064;2024-02-23T09:05:17;7.70;99.90
3275;DHT22;1649;53.672;10.064;2024-02-23T09:07:43;7.70;99.90
3275;DHT22;1649;53.672;10.064;2024-02-23T09:10:09;7.80;99.90
3275;DHT22;1649;53.672;10.064;2024-02-23T09:12:34;8.00;99.90
3275;DHT22;1649;53.672;10.064;2024-02-23T09:15:00;8.40;99.90
3275;DHT22;1649;53.672;10.064;2024-02-23T09:17:25;8.40;99.90
3275;DHT22;1649;53.672;10.064;2024-02-23T09:19:51;8.20;99.90
3275;DHT22;1649;53.672;10.064;2024-02-23T09:22:16;7.90;99.90
3275;DHT22;1649;53.672;10.064;2024-02-23T09:24:42;7.90;99.90
3275;DHT22;1649;53.672;10.064;2024-02-23T09:27:07;7.80;99.90
3275;DHT22;1649;53.672;10.064;2024-02-23T09:29:33;7.70;99.90
3275;DHT22;1649;53.672;10.064;2024-02-23T09:31:59;7.70;99.90
3275;DHT22;1649;53.672;10.064;2024-02-23T09:34:25;7.70;99.90
3275;DHT22;1649;53.672;10.064;2024-02-23T09:36:51;7.50;99.90
3275;DHT22;1649;53.672;10.064;2024-02-23T09:39:16;7.50;99.90
3275;DHT22;1649;53.672;10.064;2024-02-23T09:41:42;7.50;99.90
3275;DHT22;1649;53.672;10.064;2024-02-23T09:44:08;7.60;99.90
3275;DHT22;1649;53.672;10.064;2024-02-23T09:46:36;7.50;99.90
3275;DHT22;1649;53.672;10.064;2024-02-23T09:49:03;7.50;99.90
3275;DHT22;1649;53.672;10.064;2024-02-23T09:51:29;7.50;99.90
3275;DHT22;1649;53.672;10.064;2024-02-23T09:53:55;7.50;99.90
3275;DHT22;1649;53.672;10.064;2024-02-23T09:56:24;7.40;99.90
3275;DHT22;1649;53.672;10.064;2024-02-23T09:58:52;7.50;99.90
3275;DHT22;1649;53.672;10.064;2024-02-23T10:01:24;7.60;99.90
3275;DHT22;1649;53.672;10.064;2024-02-23T10:03:53;7.50;99.90
3275;DHT22;1649;53.672;10.064;2024-02-23T10:06:20;7.60;99.90
3275;DHT22;1649;53.672;10.064;2024-02-23T10:08:45;7.60;99.90
3275;DHT22;1649;53.672;10.064;2024-02-23T10:11:11;7.70;99.90
3275;DHT22;1649;53.672;10.064;2024-02-23T10:13:36;7.70;99.90
3275;DHT22;1649;53.672;10.064;2024-02-23T10:16:02;7.70;99.90
3275;DHT22;1649;53.672;10.064;2024-02-23T10:18:27;7.70;99.90
3275;DHT22;1649;53.672;10.064;2024-02-23T10:20:53;7.80;99.90
3275;DHT22;1649;53.672;10.064;2024-02-23T10:23:19;7.80;99.90
3275;DHT22;1649;53.672;10.064;2024-02-23T10:25:45;7.80;99.90
3275;DHT22;1649;53.672;10.064;2024-02-23T10:28:10;7.90;99.90
3275;DHT22;1649;53.672;10.064;2024-02-23T10:30:37;8.00;99.90
3275;DHT22;1649;53.672;10.064;2024-02-23T10:33:05;7.90;99.90
3275;DHT22;1649;53.672;10.064;2024-02-23T10:35:32;8.10;99.90
3275;DHT22;1649;53.672;10.064;2024-02-23T10:38:01;8.50;99.90
3275;DHT22;1649;53.672;10.064;2024-02-23T10:40:27;8.50;99.90
3275;DHT22;1649;53.672;10.064;2024-02-23T10:42:56;8.60;99.90
3275;DHT22;1649;53.672;10.064;2024-02-23T10:45:24;8.60;99.90
3275;DHT22;1649;53.672;10.064;2024-02-23T10:47:50;8.50;99.90
3275;DHT22;1649;53.672;10.064;2024-02-23T10:50:17;8.40;99.90
3275;DHT22;1649;53.672;10.064;2024-02-23T10:52:45;8.50;99.90
3275;DHT22;1649;53.672;10.064;2024-02-23T10:55:10;8.50;99.90
3275;DHT22;1649;53.672;10.064;2024-02-23T10:57:36;8.60;99.90
3275;DHT22;1649;53.672;10.064;2024-02-23T11:00:03;8.50;99.90
3275;DHT22;1649;53.672;10.064;2024-02-23T11:02:38;8.50;99.90
3275;DHT22;1649;53.672;10.064;2024-02-23T11:05:05;8.50;99.90
3275;DHT22;1649;53.672;10.064;2024-02-23T11:07:31;8.50;99.90
3275;DHT22;1649;53.672;10.064;2024-02-23T11:10:00;8.40;99.90
3275;DHT22;1649;53.672;10.064;2024-02-23T11:12:28;8.30;99.90
3275;DHT22;1649;53.672;10.064;2024-02-23T11:14:58;8.10;99.90
3275;DHT22;1649;53.672;10.064;2024-02-23T11:17:26;8.00;99.90
3275;DHT22;1649;53.672;10.064;2024-02-23T11:19:54;8.10;99.90
3275;DHT22;1649;53.672;10.064;2024-02-23T11:22:35;8.40;99.90
3275;DHT22;1649;53.672;10.064;2024-02-23T11:25:05;8.60;99.90
3275;DHT22;1649;53.672;10.064;2024-02-23T11:27:32;8.70;99.90
3275;DHT22;1649;53.672;10.064;2024-02-23T11:30:03;8.60;99.90
3275;DHT22;1649;53.672;10.064;2024-02-23T11:32:40;8.60;99.90
3275;DHT22;1649;53.672;10.064;2024-02-23T11:35:07;8.50;99.90
3275;DHT22;1649;53.672;10.064;2024-02-23T11:37:47;8.40;99.90
3275;DHT22;1649;53.672;10.064;2024-02-23T11:40:13;8.20;99.90
3275;DHT22;1649;53.672;10.064;2024-02-23T11:42:41;8.20;99.90
3275;DHT22;1649;53.672;10.064;2024-02-23T11:45:07;8.20;99.90
3275;DHT22;1649;53.672;10.064;2024-02-23T11:47:32;8.20;99.90
3275;DHT22;1649;53.672;10.064;2024-02-23T11:49:58;8.30;99.90
3275;DHT22;1649;53.672;10.064;2024-02-23T11:52:23;8.30;99.90
3275;DHT22;1649;53.672;10.064;2024-02-23T11:54:49;8.30;99.90
3275;DHT22;1649;53.672;10.064;2024-02-23T11:57:15;8.50;99.90
3275;DHT22;1649;53.672;10.064;2024-02-23T11:59:41;8.60;99.90
3275;DHT22;1649;53.672;10.064;2024-02-23T12:02:06;8.60;99.90
3275;DHT22;1649;53.672;10.064;2024-02-23T12:04:33;8.70;99.90
3275;DHT22;1649;53.672;10.064;2024-02-23T12:06:58;8.80;99.90
3275;DHT22;1649;53.672;10.064;2024-02-23T12:09:24;8.80;99.90
3275;DHT22;1649;53.672;10.064;2024-02-23T12:11:50;8.80;99.90
3275;DHT22;1649;53.672;10.064;2024-02-23T12:14:16;8.70;99.90
3275;DHT22;1649;53.672;10.064;2024-02-23T12:16:43;8.60;99.90
3275;DHT22;1649;53.672;10.064;2024-02-23T12:19:09;8.50;99.90
3275;DHT22;1649;53.672;10.064;2024-02-23T12:21:35;8.40;99.90
3275;DHT22;1649;53.672;10.064;2024-02-23T12:24:06;8.50;99.90
3275;DHT22;1649;53.672;10.064;2024-02-23T12:26:33;8.70;99.90
3275;DHT22;1649;53.672;10.064;2024-02-23T12:29:03;8.60;99.90
3275;DHT22;1649;53.672;10.064;2024-02-23T12:31:31;8.70;99.90
3275;DHT22;1649;53.672;10.064;2024-02-23T12:33:57;8.70;99.90
3275;DHT22;1649;53.672;10.064;2024-02-23T12:36:23;8.70;99.90
3275;DHT22;1649;53.672;10.064;2024-02-23T12:38:49;8.60;99.90
3275;DHT22;1649;53.672;10.064;2024-02-23T12:41:14;8.50;99.90
3275;DHT22;1649;53.672;10.064;2024-02-23T12:43:40;8.40;99.90
3275;DHT22;1649;53.672;10.064;2024-02-23T12:46:05;8.40;99.90
3275;DHT22;1649;53.672;10.064;2024-02-23T12:48:33;8.30;99.90
3275;DHT22;1649;53.672;10.064;2024-02-23T12:50:59;8.30;99.90
3275;DHT22;1649;53.672;10.064;2024-02-23T12:53:38;8.30;99.90
3275;DHT22;1649;53.672;10.064;2024-02-23T12:56:05;8.30;99.90
3275;DHT22;1649;53.672;10.064;2024-02-23T12:58:33;8.30;99.90
3275;DHT22;1649;53.672;10.064;2024-02-23T13:00:59;8.40;99.90
3275;DHT22;1649;53.672;10.064;2024-02-23T13:03:26;8.40;99.90
3275;DHT22;1649;53.672;10.064;2024-02-23T13:05:57;8.50;99.90
3275;DHT22;1649;53.672;10.064;2024-02-23T13:08:24;8.50;99.90
3275;DHT22;1649;53.672;10.064;2024-02-23T13:10:50;8.50;99.90
3275;DHT22;1649;53.672;10.064;2024-02-23T13:13:16;8.50;99.90
3275;DHT22;1649;53.672;10.064;2024-02-23T13:15:43;8.50;99.90
3275;DHT22;1649;53.672;10.064;2024-02-23T13:18:08;8.50;99.90
3275;DHT22;1649;53.672;10.064;2024-02-23T13:20:35;8.50;99.90
3275;DHT22;1649;53.672;10.064;2024-02-23T13:23:00;8.50;99.90
3275;DHT22;1649;53.672;10.064;2024-02-23T13:25:27;8.50;99.90
3275;DHT22;1649;53.672;10.064;2024-02-23T13:27:52;8.40;99.90
3275;DHT22;1649;53.672;10.064;2024-02-23T13:30:18;8.50;99.90
3275;DHT22;1649;53.672;10.064;2024-02-23T13:32:43;8.50;99.90
3275;DHT22;1649;53.672;10.064;2024-02-23T13:35:09;8.40;99.90
3275;DHT22;1649;53.672;10.064;2024-02-23T13:37:34;8.40;99.90
3275;DHT22;1649;53.672;10.064;2024-02-23T13:40:00;8.40;99.90
3275;DHT22;1649;53.672;10.064;2024-02-23T13:42:26;8.30;99.80
3275;DHT22;1649;53.672;10.064;2024-02-23T13:44:51;8.30;99.90
3275;DHT22;1649;53.672;10.064;2024-02-23T13:47:17;8.30;99.90
3275;DHT22;1649;53.672;10.064;2024-02-23T13:49:42;8.30;99.90
3275;DHT22;1649;53.672;10.064;2024-02-23T13:52:08;8.40;99.90
3275;DHT22;1649;53.672;10.064;2024-02-23T13:54:34;8.30;99.90
3275;DHT22;1649;53.672;10.064;2024-02-23T13:56:59;8.30;99.90
3275;DHT22;1649;53.672;10.064;2024-02-23T13:59:25;8.30;99.90
3275;DHT22;1649;53.672;10.064;2024-02-23T14:01:50;8.30;99.90
3275;DHT22;1649;53.672;10.064;2024-02-23T14:04:17;8.30;99.90
3275;DHT22;1649;53.672;10.064;2024-02-23T14:06:43;8.20;99.90
3275;DHT22;1649;53.672;10.064;2024-02-23T14:09:09;8.20;99.90
3275;DHT22;1649;53.672;10.064;2024-02-23T14:11:35;8.30;99.90
3275;DHT22;1649;53.672;10.064;2024-02-23T14:14:00;8.20;99.90
3275;DHT22;1649;53.672;10.064;2024-02-23T14:16:27;8.30;99.90
3275;DHT22;1649;53.672;10.064;2024-02-23T14:18:52;8.30;99.90
3275;DHT22;1649;53.672;10.064;2024-02-23T14:21:18;8.40;99.90
3275;DHT22;1649;53.672;10.064;2024-02-23T14:23:44;8.40;99.90
3275;DHT22;1649;53.672;10.064;2024-02-23T14:26:10;8.50;99.40
3275;DHT22;1649;53.672;10.064;2024-02-23T14:28:35;8.60;99.80
3275;DHT22;1649;53.672;10.064;2024-02-23T14:31:01;8.70;99.90
3275;DHT22;1649;53.672;10.064;2024-02-23T14:33:26;8.70;99.20
3275;DHT22;1649;53.672;10.064;2024-02-23T14:35:52;8.80;99.60
3275;DHT22;1649;53.672;10.064;2024-02-23T14:38:17;8.80;99.80
3275;DHT22;1649;53.672;10.064;2024-02-23T14:40:43;8.80;98.70
3275;DHT22;1649;53.672;10.064;2024-02-23T14:43:08;8.70;98.90
3275;DHT22;1649;53.672;10.064;2024-02-23T14:45:35;8.60;99.20
3275;DHT22;1649;53.672;10.064;2024-02-23T14:48:00;8.60;99.20
3275;DHT22;1649;53.672;10.064;2024-02-23T14:50:26;8.70;99.60
3275;DHT22;1649;53.672;10.064;2024-02-23T14:52:52;8.80;98.80
3275;DHT22;1649;53.672;10.064;2024-02-23T14:55:17;8.80;99.00
3275;DHT22;1649;53.672;10.064;2024-02-23T14:57:43;8.80;98.90
3275;DHT22;1649;53.672;10.064;2024-02-23T15:00:09;8.80;99.00
3275;DHT22;1649;53.672;10.064;2024-02-23T15:02:35;8.90;99.20
3275;DHT22;1649;53.672;10.064;2024-02-23T15:05:01;8.90;98.90
3275;DHT22;1649;53.672;10.064;2024-02-23T15:07:26;8.80;99.30
3275;DHT22;1649;53.672;10.064;2024-02-23T15:09:53;8.80;99.10
3275;DHT22;1649;53.672;10.064;2024-02-23T15:12:19;8.80;99.00
3275;DHT22;1649;53.672;10.064;2024-02-23T15:14:44;8.80;99.50
3275;DHT22;1649;53.672;10.064;2024-02-23T15:17:10;8.80;99.50
3275;DHT22;1649;53.672;10.064;2024-02-23T15:19:35;8.70;99.80
3275;DHT22;1649;53.672;10.064;2024-02-23T15:22:01;8.70;99.80
3275;DHT22;1649;53.672;10.064;2024-02-23T15:24:26;8.70;99.90
3275;DHT22;1649;53.672;10.064;2024-02-23T15:26:52;8.70;99.40
3275;DHT22;1649;53.672;10.064;2024-02-23T15:29:18;8.70;99.30
3275;DHT22;1649;53.672;10.064;2024-02-23T15:31:43;8.70;99.50
3275;DHT22;1649;53.672;10.064;2024-02-23T15:34:10;8.70;99.40
3275;DHT22;1649;53.672;10.064;2024-02-23T15:36:36;8.70;99.40
3275;DHT22;1649;53.672;10.064;2024-02-23T15:39:01;8.60;99.50
3275;DHT22;1649;53.672;10.064;2024-02-23T15:41:29;8.60;99.70
3275;DHT22;1649;53.672;10.064;2024-02-23T15:43:55;8.60;99.50
3275;DHT22;1649;53.672;10.064;2024-02-23T15:46:21;8.60;99.60
3275;DHT22;1649;53.672;10.064;2024-02-23T15:48:46;8.60;99.80
3275;DHT22;1649;53.672;10.064;2024-02-23T15:51:12;8.60;99.90
3275;DHT22;1649;53.672;10.064;2024-02-23T15:53:37;8.60;99.80
3275;DHT22;1649;53.672;10.064;2024-02-23T15:56:03;8.60;99.90
3275;DHT22;1649;53.672;10.064;2024-02-23T15:58:29;8.60;99.80
3275;DHT22;1649;53.672;10.064;2024-02-23T16:00:54;8.50;99.90